createdAt,value
2023-12-09T00:02:51.745Z,0.72
2023-12-09T00:18:33.896Z,0.71
2023-12-09T00:34:16.419Z,0.7
2023-12-09T00:49:59.620Z,0.7
2023-12-09T01:05:42.109Z,0.75
2023-12-09T01:21:24.957Z,0.8
2023-12-09T01:37:07.722Z,0.87
2023-12-09T01:52:50.764Z,0.92
2023-12-09T02:08:33.362Z,0.93
2023-12-09T02:24:16.294Z,0.97
2023-12-09T02:39:59.185Z,1
2023-12-09T02:55:42.034Z,1.07
2023-12-09T03:11:24.723Z,1.16
2023-12-09T03:27:07.176Z,1.22
2023-12-09T03:42:50.460Z,1.25
2023-12-09T03:58:33.302Z,1.28
2023-12-09T04:14:16.400Z,1.32
2023-12-09T04:29:59.600Z,1.35
2023-12-09T04:45:42.174Z,1.41
2023-12-09T05:01:25.498Z,1.46
2023-12-09T05:17:08.267Z,1.51
2023-12-09T05:32:50.999Z,1.58
2023-12-09T05:48:33.412Z,1.64
2023-12-09T06:04:16.047Z,1.69
2023-12-09T06:19:59.277Z,1.74
2023-12-09T06:35:42.432Z,1.84
2023-12-09T06:51:25.308Z,1.89
2023-12-09T07:07:07.947Z,1.95
2023-12-09T07:22:50.497Z,2.07
2023-12-09T07:38:32.923Z,2.13
2023-12-09T07:54:15.943Z,2.25
2023-12-09T08:09:58.815Z,2.38
2023-12-09T08:25:41.448Z,2.56
2023-12-09T08:57:06.795Z,3.28
2023-12-09T09:12:50.044Z,3.41
2023-12-09T09:28:32.811Z,3.64
2023-12-09T09:44:15.712Z,3.79
2023-12-09T09:59:58.317Z,3.9
2023-12-09T10:15:40.679Z,4
2023-12-09T10:31:23.639Z,4.17
2023-12-09T10:47:06.618Z,4.26
2023-12-09T11:02:49.099Z,4.36
2023-12-09T11:18:31.536Z,4.48
2023-12-09T11:34:14.007Z,4.64
2023-12-09T11:49:56.756Z,4.85
2023-12-09T12:05:39.323Z,4.96
2023-12-09T12:21:22.477Z,5.05
2023-12-09T12:37:05.180Z,5.27
2023-12-09T12:52:48.069Z,5.48
2023-12-09T13:08:30.483Z,5.38
2023-12-09T13:24:12.843Z,5.67
2023-12-09T13:39:55.903Z,5.88
2023-12-09T13:55:38.233Z,5.64
2023-12-09T14:11:21.348Z,5.09
2023-12-09T14:27:04.504Z,4.76
2023-12-09T14:42:46.839Z,4.33
2023-12-09T14:58:30.092Z,3.87
2023-12-09T15:14:12.749Z,3.47
2023-12-09T15:29:55.926Z,3.15
2023-12-09T15:45:39.094Z,2.94
2023-12-09T15:46:26.556Z,3.13
2023-12-09T16:02:09.361Z,2.78
2023-12-09T16:17:51.763Z,2.73
2023-12-09T16:33:34.610Z,2.62
2023-12-09T16:49:17.216Z,2.75
2023-12-09T17:05:00.214Z,2.89
2023-12-09T17:20:42.569Z,2.87
2023-12-09T17:36:25.287Z,2.71
2023-12-09T17:52:08.476Z,2.51
2023-12-09T18:07:50.874Z,2.32
2023-12-09T18:23:33.745Z,2.16
2023-12-09T18:39:16.476Z,2.04
2023-12-09T18:54:58.789Z,1.96
2023-12-09T19:10:41.881Z,1.87
2023-12-09T19:26:24.318Z,1.84
2023-12-09T19:42:07.463Z,1.83
2023-12-09T19:57:49.990Z,1.79
2023-12-09T20:13:32.706Z,1.8
2023-12-09T20:29:15.615Z,1.81
2023-12-09T20:44:58.492Z,1.95
2023-12-09T21:16:24.001Z,2.16
2023-12-09T21:32:06.695Z,2.21
2023-12-09T21:47:49.066Z,2.24
2023-12-09T22:03:31.642Z,2.26
2023-12-09T22:19:14.642Z,2.35
2023-12-09T22:34:57.645Z,2.41
2023-12-09T22:50:40.117Z,2.4
2023-12-09T23:06:23.048Z,2.42
2023-12-09T23:22:06.324Z,2.47
2023-12-09T23:37:49.329Z,2.43
2023-12-09T23:53:32.356Z,2.45
